createdAt,value
2022-11-07T00:01:39.797Z,101762.34
2022-11-07T00:04:06.465Z,101761.47
2022-11-07T00:06:33.924Z,101759.00
2022-11-07T00:09:03.093Z,101764.22
2022-11-07T00:11:29.657Z,101766.78
2022-11-07T00:13:56.290Z,101756.28
2022-11-07T00:16:22.914Z,101751.97
2022-11-07T00:18:49.588Z,101758.03
2022-11-07T00:21:16.462Z,101754.59
2022-11-07T00:23:43.166Z,101749.38
2022-11-07T00:26:14.173Z,101758.16
2022-11-07T00:28:42.965Z,101749.53
2022-11-07T00:31:11.389Z,101747.00
2022-11-07T00:33:37.993Z,101744.38
2022-11-07T00:36:06.751Z,101748.78
2022-11-07T00:38:33.346Z,101747.84
2022-11-07T00:41:05.294Z,101740.84
2022-11-07T00:43:33.137Z,101745.06
2022-11-07T00:46:04.840Z,101742.50
2022-11-07T00:48:32.428Z,101747.81
2022-11-07T00:51:06.818Z,101750.47
2022-11-07T00:53:33.603Z,101734.88
2022-11-07T00:56:05.638Z,101746.06
2022-11-07T00:58:33.119Z,101743.44
2022-11-07T01:01:00.530Z,101737.34
2022-11-07T01:03:46.181Z,101726.88
2022-11-07T01:06:12.778Z,101740.06
2022-11-07T01:08:41.019Z,101732.06
2022-11-07T01:11:08.685Z,101725.97
2022-11-07T01:13:36.263Z,101730.31
2022-11-07T01:16:03.500Z,101723.38
2022-11-07T01:18:31.218Z,101726.97
2022-11-07T01:20:57.803Z,101707.88
2022-11-07T01:23:24.387Z,101714.88
2022-11-07T01:25:51.059Z,101700.91
2022-11-07T01:28:17.954Z,101718.31
2022-11-07T01:30:45.526Z,101716.56
2022-11-07T01:33:12.758Z,101706.94
2022-11-07T01:35:40.214Z,101703.50
2022-11-07T01:38:07.170Z,101705.28
2022-11-07T01:40:54.036Z,101711.38
2022-11-07T01:43:20.642Z,101700.06
2022-11-07T01:45:47.207Z,101706.09
2022-11-07T01:48:14.053Z,101703.41
2022-11-07T01:50:40.676Z,101683.22
2022-11-07T01:53:07.270Z,101703.31
2022-11-07T01:55:36.241Z,101696.47
2022-11-07T01:58:07.146Z,101697.28
2022-11-07T02:00:34.728Z,101697.31
2022-11-07T02:03:08.259Z,101686.06
2022-11-07T02:05:40.792Z,101693.00
2022-11-07T02:08:10.242Z,101695.63
2022-11-07T02:10:39.709Z,101706.19
2022-11-07T02:13:07.467Z,101700.84
2022-11-07T02:15:35.769Z,101694.81
2022-11-07T02:18:02.630Z,101699.00
2022-11-07T02:20:29.531Z,101691.13
2022-11-07T02:22:59.060Z,101691.28
2022-11-07T02:25:25.731Z,101696.50
2022-11-07T02:28:00.808Z,101680.09
2022-11-07T02:30:30.849Z,101681.91
2022-11-07T02:32:57.555Z,101671.56
2022-11-07T02:35:43.310Z,101681.97
2022-11-07T02:38:20.379Z,101679.56
2022-11-07T02:40:55.398Z,101675.16
2022-11-07T02:43:25.981Z,101659.34
2022-11-07T02:45:54.529Z,101664.69
2022-11-07T02:48:21.302Z,101672.47
2022-11-07T02:50:47.901Z,101648.78
2022-11-07T02:53:14.685Z,101670.84
2022-11-07T02:55:41.426Z,101667.50
2022-11-07T02:58:08.057Z,101663.09
2022-11-07T03:00:34.646Z,101664.94
2022-11-07T03:03:01.253Z,101651.78
2022-11-07T03:05:27.934Z,101629.94
2022-11-07T03:07:57.201Z,101643.19
2022-11-07T03:10:26.368Z,101640.59
2022-11-07T03:12:52.944Z,101643.13
2022-11-07T03:15:19.620Z,101637.94
2022-11-07T03:17:46.984Z,101648.47
2022-11-07T03:20:13.675Z,101631.22
2022-11-07T03:22:40.294Z,101639.03
2022-11-07T03:25:09.164Z,101639.91
2022-11-07T03:27:54.400Z,101621.78
2022-11-07T03:30:21.392Z,101630.34
2022-11-07T03:32:48.183Z,101632.97
2022-11-07T03:35:14.763Z,101636.69
2022-11-07T03:37:50.449Z,101625.19
2022-11-07T03:40:17.905Z,101647.88
2022-11-07T03:42:45.566Z,101640.94
2022-11-07T03:45:15.447Z,101634.81
2022-11-07T03:47:43.654Z,101612.28
2022-11-07T03:50:13.680Z,101615.00
2022-11-07T03:52:40.289Z,101617.63
2022-11-07T03:55:07.531Z,101622.97
2022-11-07T03:57:34.148Z,101611.50
2022-11-07T04:00:00.810Z,101623.63
2022-11-07T04:02:27.688Z,101617.63
2022-11-07T04:04:54.435Z,101619.38
2022-11-07T04:07:22.954Z,101619.28
2022-11-07T04:09:53.503Z,101601.84
2022-11-07T04:12:39.017Z,101610.56
2022-11-07T04:15:24.968Z,101607.13
2022-11-07T04:17:53.094Z,101609.78
2022-11-07T04:20:28.504Z,101614.97
2022-11-07T04:22:55.167Z,101602.81
2022-11-07T04:25:41.727Z,101606.41
2022-11-07T04:28:09.298Z,101601.00
2022-11-07T04:30:36.015Z,101620.28
2022-11-07T04:33:02.932Z,101613.41
2022-11-07T04:35:31.809Z,101608.16
2022-11-07T04:37:59.504Z,101603.03
2022-11-07T04:40:27.427Z,101606.63
2022-11-07T04:42:55.253Z,101611.78
2022-11-07T04:45:22.336Z,101603.88
2022-11-07T04:47:49.066Z,101615.16
2022-11-07T04:50:17.957Z,101630.72
2022-11-07T04:52:48.317Z,101603.00
2022-11-07T04:55:25.097Z,101611.63
2022-11-07T04:57:52.169Z,101608.16
2022-11-07T05:00:20.254Z,101593.25
2022-11-07T05:02:48.607Z,101605.53
2022-11-07T05:05:16.987Z,101603.81
2022-11-07T05:07:43.970Z,101607.44
2022-11-07T05:10:23.742Z,101608.16
2022-11-07T05:12:50.868Z,101608.16
2022-11-07T05:15:18.338Z,101608.34
2022-11-07T05:17:45.849Z,101620.44
2022-11-07T05:20:39.337Z,101604.03
2022-11-07T05:23:14.142Z,101606.66
2022-11-07T05:25:45.476Z,101601.44
2022-11-07T05:28:22.088Z,101598.81
2022-11-07T17:39:24.991Z,101316.56
2022-11-07T17:41:53.859Z,101319.28
2022-11-07T17:44:23.714Z,101303.84
2022-11-07T17:46:50.627Z,101312.63
2022-11-07T17:52:18.423Z,101296.25
2022-11-07T17:54:45.058Z,101303.31
2022-11-07T17:57:11.665Z,101297.31
2022-11-07T17:59:42.181Z,101289.44
2022-11-07T18:02:17.261Z,101298.16
2022-11-07T18:04:47.081Z,101305.19
2022-11-07T18:07:13.667Z,101303.50
2022-11-07T18:09:41.265Z,101296.63
2022-11-07T18:12:09.850Z,101300.16
2022-11-07T18:14:36.810Z,101297.59
2022-11-07T18:17:03.543Z,101295.81
2022-11-07T18:19:40.759Z,101305.47
2022-11-07T18:22:12.870Z,101302.84
2022-11-07T18:24:41.012Z,101308.06
2022-11-07T18:27:10.482Z,101298.47
2022-11-07T18:32:37.017Z,101299.41
2022-11-07T18:35:06.180Z,101266.22
2022-11-07T18:37:34.023Z,101298.53
2022-11-07T18:40:02.956Z,101295.06
2022-11-07T18:42:29.537Z,101293.28
2022-11-07T18:44:56.137Z,101295.94
2022-11-07T18:47:23.907Z,101281.16
2022-11-07T18:49:55.641Z,101279.44
2022-11-07T18:52:25.032Z,101289.91
2022-11-07T18:54:54.324Z,101280.38
2022-11-07T18:57:20.906Z,101290.84
2022-11-07T18:59:47.915Z,101270.84
2022-11-07T19:02:15.270Z,101278.66
2022-11-07T19:04:44.661Z,101279.53
2022-11-07T19:07:11.290Z,101278.69
2022-11-07T19:09:50.180Z,101274.31
2022-11-07T19:13:13.490Z,101279.53
2022-11-07T19:15:40.174Z,101286.50
2022-11-07T19:18:06.843Z,101287.34
2022-11-07T19:20:33.527Z,101283.03
2022-11-07T19:23:00.174Z,101264.75
2022-11-07T19:26:11.369Z,101288.25
2022-11-07T19:28:38.380Z,101284.75
2022-11-07T19:31:06.921Z,101294.31
2022-11-07T19:33:33.682Z,101285.63
2022-11-07T19:36:03.262Z,101279.50
2022-11-07T19:38:33.166Z,101271.66
2022-11-07T19:41:04.985Z,101272.63
2022-11-07T19:43:32.484Z,101255.97
2022-11-07T19:45:59.260Z,101277.78
2022-11-07T19:48:27.086Z,101266.56
2022-11-07T19:50:53.710Z,101264.84
2022-11-07T19:53:22.975Z,101261.44
2022-11-07T20:01:33.724Z,101243.16
2022-11-07T20:04:03.987Z,101247.47
2022-11-07T20:06:36.014Z,101251.84
2022-11-07T20:09:07.852Z,101250.16
2022-11-07T20:11:35.029Z,101262.28
2022-11-07T20:14:03.585Z,101264.03
2022-11-07T20:16:30.759Z,101249.28
2022-11-07T20:18:57.634Z,101249.31
2022-11-07T20:21:25.485Z,101248.44
2022-11-07T20:23:57.119Z,101251.03
2022-11-07T20:26:28.745Z,101245.00
2022-11-07T20:28:58.638Z,101244.16
2022-11-07T20:31:29.537Z,101242.44
2022-11-07T20:37:41.030Z,101242.41
2022-11-07T20:41:10.894Z,101242.41
2022-11-07T20:43:40.076Z,101239.78
2022-11-07T20:46:12.413Z,101244.16
2022-11-07T20:48:39.250Z,101232.81
2022-11-07T20:51:14.980Z,101238.00
2022-11-07T20:53:48.377Z,101240.66
2022-11-07T20:56:20.526Z,101242.41
2022-11-07T20:58:47.910Z,101245.03
2022-11-07T21:01:36.020Z,101239.84
2022-11-07T21:04:13.233Z,101240.69
2022-11-07T21:06:40.190Z,101244.22
2022-11-07T21:09:07.469Z,101258.09
2022-11-07T21:11:34.567Z,101256.41
2022-11-07T21:14:01.430Z,101243.34
2022-11-07T21:16:28.590Z,101251.16
2022-11-07T21:18:56.272Z,101248.53
2022-11-07T21:21:27.117Z,101262.44
2022-11-07T21:23:54.885Z,101253.72
2022-11-07T21:26:35.195Z,101262.41
2022-11-07T21:29:05.928Z,101270.22
2022-11-07T21:31:34.058Z,101270.22
2022-11-07T21:34:00.751Z,101262.38
2022-11-07T21:36:29.548Z,101267.59
2022-11-07T21:38:59.494Z,101262.41
2022-11-07T21:41:26.799Z,101267.59
2022-11-07T21:43:53.483Z,101266.69
2022-11-07T21:46:23.047Z,101272.84
2022-11-07T21:48:50.550Z,101264.19
2022-11-07T21:51:21.110Z,101261.56
2022-11-07T21:53:48.389Z,101271.09
2022-11-07T21:56:18.237Z,101264.97
2022-11-07T21:58:45.197Z,101231.00
2022-11-07T22:01:11.943Z,101259.78
2022-11-07T22:04:04.724Z,101259.78
2022-11-07T22:06:25.296Z,101247.59
2022-11-07T22:08:51.963Z,101238.84
2022-11-07T22:11:18.827Z,101251.09
2022-11-07T22:13:45.933Z,101248.47
2022-11-07T22:16:15.475Z,101240.66
2022-11-07T22:18:42.596Z,101239.81
2022-11-07T22:21:12.794Z,101254.63
2022-11-07T22:23:39.854Z,101228.44
2022-11-07T22:26:27.302Z,101258.91
2022-11-07T22:28:55.008Z,101247.59
2022-11-07T22:31:24.252Z,101249.34
2022-11-07T22:33:52.156Z,101246.75
2022-11-07T22:36:19.075Z,101240.63
2022-11-07T22:38:45.957Z,101244.13
2022-11-07T22:41:22.267Z,101234.56
2022-11-07T22:43:49.353Z,101240.66
2022-11-07T22:46:21.382Z,101247.63
2022-11-07T22:48:48.735Z,101237.25
2022-11-07T22:51:18.915Z,101238.97
2022-11-07T22:53:45.812Z,101225.84
2022-11-07T22:56:15.414Z,101242.41
2022-11-07T22:58:42.586Z,101238.06
2022-11-07T23:01:17.526Z,101231.97
2022-11-07T23:03:44.562Z,101243.28
2022-11-07T23:06:11.281Z,101236.38
2022-11-07T23:08:40.844Z,101226.78
2022-11-07T23:14:03.314Z,101236.34
2022-11-07T23:16:33.165Z,101220.72
2022-11-07T23:19:02.201Z,101226.78
2022-11-07T23:21:28.999Z,101225.06
2022-11-07T23:23:57.609Z,101226.78
2022-11-07T23:26:25.738Z,101229.38
2022-11-07T23:28:52.804Z,101209.34
2022-11-07T23:31:20.209Z,101212.84
2022-11-07T23:33:46.842Z,101225.00
2022-11-07T23:36:16.386Z,101222.41
2022-11-07T23:38:44.352Z,101213.75
2022-11-07T23:41:13.034Z,101224.16
2022-11-07T23:43:42.933Z,101214.56
2022-11-07T23:46:32.351Z,101225.91
2022-11-07T23:49:17.528Z,101224.16
2022-11-07T23:51:45.812Z,101215.47
2022-11-07T23:54:32.137Z,101211.94
2022-11-07T23:56:58.714Z,101217.19
2022-11-07T23:59:44.708Z,101218.94
